Time;durP1;ratioP1;P1;durP2;ratioP2;P2;SDS_P1;SDS_P2;PMS_P1;PMS_P2;Temp;Humidity;BMP_temperature;BMP_pressure;BME280_temperature;BME280_humidity;BME280_pressure;Samples;Min_cycle;Max_cycle;Signal;HPM_P1;HPM_P2
2021/07/22 00:01:28;;;;;;;;;18.75;18.50;;;;;27.21;40.71;101562.06;5074798;27;45673;-58
2021/07/22 00:03:53;;;;;;;;;20.25;20.25;;;;;27.18;40.87;101560.44;5084336;27;45328;-58
2021/07/22 00:06:19;;;;;;;;;25.00;22.50;;;;;27.17;40.56;101561.41;5084587;27;48007;-58
2021/07/22 00:08:44;;;;;;;;;21.50;20.00;;;;;27.16;40.84;101561.53;5066514;28;45987;-58
2021/07/22 00:11:10;;;;;;;;;27.00;22.25;;;;;27.14;41.15;101556.22;5084553;27;45312;-58
2021/07/22 00:13:35;;;;;;;;;24.50;23.50;;;;;27.11;41.04;101559.19;5085003;27;45369;-59
2021/07/22 00:16:01;;;;;;;;;19.00;17.25;;;;;27.09;40.83;101554.84;5080747;27;48186;-58
2021/07/22 00:18:26;;;;;;;;;20.25;19.25;;;;;27.08;40.73;101558.56;5080075;27;45463;-58
2021/07/22 00:20:52;;;;;;;;;19.00;19.00;;;;;27.05;40.56;101553.34;5080917;27;45255;-58
2021/07/22 00:23:17;;;;;;;;;20.50;19.75;;;;;27.04;41.29;101565.22;5058660;28;45628;-58
2021/07/22 00:25:43;;;;;;;;;21.50;19.75;;;;;26.98;40.94;101559.25;5056564;28;45765;-60
2021/07/22 00:28:09;;;;;;;;;20.50;17.75;;;;;26.96;41.47;101561.22;5061869;28;45970;-59
2021/07/22 00:30:35;;;;;;;;;22.25;19.00;;;;;26.94;40.95;101562.31;5062435;27;45668;-59
2021/07/22 00:33:01;;;;;;;;;18.75;18.00;;;;;26.92;41.21;101565.13;5074620;27;45767;-58
2021/07/22 00:35:29;;;;;;;;;19.25;18.00;;;;;26.90;41.59;101568.97;5080254;27;46335;-58
2021/07/22 00:37:55;;;;;;;;;21.50;20.25;;;;;26.88;41.69;101562.78;5073861;27;45438;-61
2021/07/22 00:40:21;;;;;;;;;20.00;19.00;;;;;26.85;41.12;101565.75;5073640;27;45401;-58
2021/07/22 00:43:00;;;;;;;;;19.75;19.75;;;;;26.81;41.90;101556.97;5080223;27;45457;-59
2021/07/22 00:45:27;;;;;;;;;22.75;19.75;;;;;26.79;41.47;101563.47;5075404;27;48017;-58
2021/07/22 00:47:53;;;;;;;;;19.75;19.00;;;;;26.75;41.60;101568.31;5079078;27;45609;-58
2021/07/22 00:50:19;;;;;;;;;16.00;16.00;;;;;26.72;41.87;101570.41;5062132;27;45420;-58
2021/07/22 00:52:44;;;;;;;;;20.50;19.00;;;;;26.68;42.22;101565.19;5080142;27;45619;-58
2021/07/22 00:55:12;;;;;;;;;20.50;20.50;;;;;26.67;41.84;101566.16;5080504;27;47270;-58
2021/07/22 00:57:38;;;;;;;;;18.50;17.50;;;;;26.64;42.34;101560.06;5081075;27;45248;-58
2021/07/22 01:00:04;;;;;;;;;21.75;21.50;;;;;26.63;41.67;101566.50;5080512;27;45305;-58
2021/07/22 01:02:30;;;;;;;;;22.50;18.75;;;;;26.62;42.10;101551.16;5064379;28;45593;-58
2021/07/22 01:04:55;;;;;;;;;22.25;20.50;;;;;26.61;41.88;101557.59;5082326;27;45426;-58
2021/07/22 01:07:21;;;;;;;;;22.00;20.00;;;;;26.60;42.26;101553.13;5063130;28;45359;-58
2021/07/22 01:09:49;;;;;;;;;27.25;24.75;;;;;26.59;41.95;101563.16;5083679;27;45378;-58
2021/07/22 01:12:15;;;;;;;;;25.75;22.25;;;;;26.59;42.42;101559.56;5066759;28;45579;-58
2021/07/22 01:14:43;;;;;;;;;23.00;21.50;;;;;26.57;42.38;101562.41;5080973;27;45478;-58
2021/07/22 01:17:17;;;;;;;;;20.00;20.00;;;;;26.57;42.43;101566.97;5081819;27;45328;-58
2021/07/22 01:19:43;;;;;;;;;22.50;22.50;;;;;26.54;42.19;101565.34;5061883;27;45376;-58
2021/07/22 01:22:08;;;;;;;;;19.50;19.50;;;;;26.54;42.55;101564.47;5081129;27;45374;-58
2021/07/22 01:24:34;;;;;;;;;20.25;20.25;;;;;26.53;42.11;101568.19;5065746;27;45405;-58
2021/07/22 01:27:00;;;;;;;;;19.50;18.50;;;;;26.51;42.44;101559.25;5082187;27;45397;-58
2021/07/22 01:29:25;;;;;;;;;22.00;20.50;;;;;26.49;42.60;101559.38;5080630;27;45694;-58
2021/07/22 01:31:51;;;;;;;;;22.50;21.00;;;;;26.47;42.36;101566.81;5080384;27;45345;-58
2021/07/22 01:34:17;;;;;;;;;19.25;19.25;;;;;26.46;42.00;101556.91;5079103;27;48247;-58
2021/07/22 01:36:42;;;;;;;;;22.75;21.50;;;;;26.45;42.37;101562.47;5082901;28;44901;-58
2021/07/22 01:39:08;;;;;;;;;19.25;19.00;;;;;26.42;42.63;101555.38;5068513;27;46113;-58
2021/07/22 01:41:35;;;;;;;;;21.75;19.50;;;;;26.40;42.28;101555.50;5080072;27;45441;-57
2021/07/22 01:44:01;;;;;;;;;22.00;22.00;;;;;26.38;42.65;101553.88;5080438;27;46215;-57
2021/07/22 01:46:27;;;;;;;;;18.75;18.50;;;;;26.35;42.76;101560.38;5059167;28;45566;-58
2021/07/22 01:48:53;;;;;;;;;19.00;17.25;;;;;26.31;42.82;101558.88;5062404;27;45342;-58
2021/07/22 01:51:19;;;;;;;;;21.00;17.25;;;;;26.29;42.66;101557.25;5063692;28;45422;-58
2021/07/22 01:53:45;;;;;;;;;19.00;18.50;;;;;26.26;42.87;101560.19;5082458;27;47181;-58
2021/07/22 01:56:10;;;;;;;;;19.75;18.75;;;;;26.23;42.90;101564.03;5079527;27;46181;-58
2021/07/22 01:58:36;;;;;;;;;19.00;19.00;;;;;26.24;42.83;101562.16;5079267;27;45555;-58
2021/07/22 02:01:02;;;;;;;;;23.50;20.50;;;;;26.23;42.19;101565.88;5055923;28;45382;-58
2021/07/22 02:03:28;;;;;;;;;16.25;16.00;;;;;26.16;42.37;101560.00;5076711;27;48024;-58
2021/07/22 02:05:53;;;;;;;;;20.50;18.75;;;;;26.13;42.48;101556.66;5079286;27;45979;-58
2021/07/22 02:08:19;;;;;;;;;18.75;17.25;;;;;26.09;42.63;101553.28;5080427;27;45327;-58
2021/07/22 02:10:44;;;;;;;;;20.00;18.75;;;;;26.07;42.67;101556.13;5062523;28;45385;-58
2021/07/22 02:13:10;;;;;;;;;18.50;18.50;;;;;26.06;43.16;101553.53;5079344;27;47086;-58
2021/07/22 02:15:38;;;;;;;;;15.75;15.25;;;;;26.04;42.90;101544.56;5081179;27;45231;-58
2021/07/22 02:18:03;;;;;;;;;18.50;17.25;;;;;26.02;42.74;101550.13;5079800;27;45343;-58
2021/07/22 02:20:29;;;;;;;;;17.00;17.00;;;;;26.02;43.00;101549.25;5079025;27;45625;-59
2021/07/22 02:22:54;;;;;;;;;22.50;18.75;;;;;26.00;42.76;101554.81;5060665;27;47814;-58
2021/07/22 02:25:19;;;;;;;;;18.75;18.25;;;;;25.98;42.96;101551.34;5078946;27;45558;-58
2021/07/22 02:27:45;;;;;;;;;22.50;20.50;;;;;25.96;43.36;101553.31;5079316;27;45475;-58
2021/07/22 02:30:11;;;;;;;;;18.25;17.50;;;;;25.94;43.03;101549.84;5079462;27;45686;-58
2021/07/22 02:32:36;;;;;;;;;21.50;19.00;;;;;25.92;43.34;101550.91;5078449;27;48241;-59
2021/07/22 02:35:02;;;;;;;;;17.75;17.50;;;;;25.90;43.25;101547.44;5079642;27;45431;-59
2021/07/22 02:37:28;;;;;;;;;21.75;17.50;;;;;25.88;43.10;101553.00;5077106;27;45532;-59
2021/07/22 02:39:53;;;;;;;;;21.25;20.75;;;;;25.84;43.39;101543.34;5050939;28;45696;-59
2021/07/22 02:42:19;;;;;;;;;20.25;18.75;;;;;25.84;43.50;101551.50;5078998;28;46934;-59
2021/07/22 02:44:44;;;;;;;;;17.25;15.25;;;;;25.81;43.06;101555.31;5078603;27;45346;-59
2021/07/22 02:47:11;;;;;;;;;19.50;17.50;;;;;25.78;43.27;101550.06;5072906;27;45687;-59
2021/07/22 02:49:37;;;;;;;;;19.25;18.00;;;;;25.77;43.53;101552.91;5078392;27;45379;-59
2021/07/22 02:52:08;;;;;;;;;18.25;16.50;;;;;25.74;43.61;101559.44;5056307;27;48285;-59
2021/07/22 02:54:33;;;;;;;;;18.50;17.00;;;;;25.73;43.58;101552.25;5078641;27;45482;-59
2021/07/22 02:56:59;;;;;;;;;18.25;18.25;;;;;25.72;43.30;101561.41;5060557;28;45803;-59
2021/07/22 02:59:25;;;;;;;;;17.50;16.25;;;;;25.71;43.09;101558.78;5060505;28;45399;-59
2021/07/22 03:01:50;;;;;;;;;16.75;16.75;;;;;25.67;43.69;101552.69;5068925;27;48403;-59
2021/07/22 03:04:15;;;;;;;;;19.00;19.00;;;;;25.63;43.37;101555.72;5078958;28;45326;-59
2021/07/22 03:06:41;;;;;;;;;20.00;20.00;;;;;25.61;43.46;101557.69;5079122;27;45601;-59
2021/07/22 03:09:06;;;;;;;;;19.25;18.25;;;;;25.60;43.52;101554.09;5079462;27;45267;-59
2021/07/22 03:11:32;;;;;;;;;18.25;16.75;;;;;25.59;43.57;101557.78;5078623;27;47015;-59
2021/07/22 03:13:58;;;;;;;;;17.50;15.75;;;;;25.58;43.52;101558.78;5060577;28;45381;-59
2021/07/22 03:16:24;;;;;;;;;25.50;21.75;;;;;25.55;43.95;101555.41;5078400;27;45275;-59
2021/07/22 03:18:49;;;;;;;;;19.25;18.25;;;;;25.51;43.19;101561.03;5078119;28;45335;-59
2021/07/22 03:21:15;;;;;;;;;18.25;15.75;;;;;25.51;43.84;101560.19;5077918;27;48453;-60
2021/07/22 03:23:40;;;;;;;;;19.75;19.50;;;;;25.48;43.79;101554.97;5077945;28;45373;-59
2021/07/22 03:26:06;;;;;;;;;18.50;17.50;;;;;25.46;44.02;101557.78;5078063;28;45691;-59
2021/07/22 03:28:31;;;;;;;;;18.50;17.75;;;;;25.42;43.88;101556.28;5078172;28;45321;-58
2021/07/22 03:30:57;;;;;;;;;20.50;18.00;;;;;25.41;44.01;101559.09;5058948;27;47065;-59
2021/07/22 03:33:22;;;;;;;;;15.75;15.75;;;;;25.41;44.28;101561.78;5077930;28;45340;-59
2021/07/22 03:35:48;;;;;;;;;19.00;16.50;;;;;25.39;43.96;101551.03;5077626;27;45349;-59
2021/07/22 03:38:13;;;;;;;;;20.75;18.00;;;;;25.38;44.13;101559.31;5069505;27;45550;-59
2021/07/22 03:40:39;;;;;;;;;20.50;19.00;;;;;25.37;44.27;101563.00;5073461;27;48259;-59
2021/07/22 03:43:04;;;;;;;;;19.25;17.50;;;;;25.34;44.28;101558.66;5077766;28;45371;-59
2021/07/22 03:45:30;;;;;;;;;21.00;18.25;;;;;25.33;44.28;101562.34;5073517;27;45366;-59
2021/07/22 03:47:59;;;;;;;;;18.50;16.75;;;;;25.31;44.44;101561.59;5076489;28;45329;-59
2021/07/22 03:50:25;;;;;;;;;23.25;20.00;;;;;25.29;44.61;101563.56;5060760;27;47767;-59
2021/07/22 03:52:57;;;;;;;;;18.25;18.25;;;;;25.29;44.68;101558.13;5080756;27;45678;-59
2021/07/22 03:55:26;;;;;;;;;17.75;17.25;;;;;25.27;44.29;101562.78;5081100;27;45363;-58
2021/07/22 03:57:51;;;;;;;;;23.50;23.00;;;;;25.27;44.79;101559.19;5081032;27;45416;-59
2021/07/22 04:00:18;;;;;;;;;20.50;19.50;;;;;25.24;44.83;101560.28;5062179;27;46243;-59
2021/07/22 04:02:43;;;;;;;;;20.75;18.75;;;;;25.20;44.36;101558.75;5072025;27;45386;-59
2021/07/22 04:05:09;;;;;;;;;21.50;19.50;;;;;25.19;44.56;101559.75;5080685;27;45547;-59
2021/07/22 04:07:34;;;;;;;;;21.25;20.00;;;;;25.18;44.70;101558.00;5063141;28;45616;-59
2021/07/22 04:10:00;;;;;;;;;21.50;20.00;;;;;25.16;44.74;101557.25;5062622;27;47109;-59
2021/07/22 04:12:26;;;;;;;;;14.75;14.75;;;;;25.15;44.72;101560.91;5081032;27;45688;-59
2021/07/22 04:14:51;;;;;;;;;19.75;18.50;;;;;25.15;44.88;101566.34;5080538;27;45297;-60
2021/07/22 04:17:17;;;;;;;;;18.75;17.25;;;;;25.15;44.73;101555.47;5081539;27;45615;-59
2021/07/22 04:19:42;;;;;;;;;22.00;21.50;;;;;25.14;44.71;101562.75;5080462;27;46984;-59
2021/07/22 04:22:08;;;;;;;;;19.50;17.25;;;;;25.14;45.05;101564.59;5080789;27;45509;-59
2021/07/22 04:24:34;;;;;;;;;23.25;21.00;;;;;25.14;45.14;101561.88;5080620;27;45299;-59
2021/07/22 04:26:59;;;;;;;;;19.75;19.50;;;;;25.11;44.98;101562.97;5059311;28;45550;-59
2021/07/22 04:29:25;;;;;;;;;23.50;23.50;;;;;25.09;44.92;101562.22;5078088;27;47428;-59
2021/07/22 04:31:50;;;;;;;;;24.50;24.50;;;;;25.09;44.84;101559.50;5080558;27;45721;-59
2021/07/22 04:34:16;;;;;;;;;25.50;25.50;;;;;25.06;45.22;101565.16;5062250;27;45435;-59
2021/07/22 04:36:41;;;;;;;;;24.25;21.75;;;;;25.05;45.07;101563.41;5080608;27;45337;-59
2021/07/22 04:39:07;;;;;;;;;21.75;21.50;;;;;25.06;44.89;101564.28;5068272;27;48377;-59
2021/07/22 04:41:32;;;;;;;;;24.25;24.25;;;;;25.06;45.15;101564.28;5080542;27;45330;-59
2021/07/22 04:43:58;;;;;;;;;25.25;23.25;;;;;25.04;45.23;101563.53;5080370;27;45414;-58
2021/07/22 04:46:23;;;;;;;;;24.50;23.00;;;;;25.03;45.17;101576.22;5075814;27;45663;-59
2021/07/22 04:48:49;;;;;;;;;25.00;22.25;;;;;25.03;45.07;101578.03;5060456;27;46111;-59
2021/07/22 04:51:14;;;;;;;;;22.00;21.75;;;;;25.01;45.15;101580.88;5075381;27;45954;-59
2021/07/22 04:53:40;;;;;;;;;24.00;21.00;;;;;25.01;45.18;101571.84;5080777;27;45381;-59
2021/07/22 04:56:05;;;;;;;;;20.75;20.75;;;;;24.99;45.22;101577.38;5062477;28;45361;-59
2021/07/22 04:58:31;;;;;;;;;25.25;22.75;;;;;25.01;45.42;101577.28;5079481;27;48341;-59
2021/07/22 05:00:56;;;;;;;;;28.75;26.00;;;;;25.01;45.05;101577.28;5073708;27;45856;-59
2021/07/22 05:03:22;;;;;;;;;21.00;19.75;;;;;25.01;45.38;101589.03;5056829;27;45551;-59
2021/07/22 05:05:47;;;;;;;;;24.00;22.25;;;;;25.00;45.11;101586.38;5080350;27;45263;-59
2021/07/22 05:08:13;;;;;;;;;25.50;21.50;;;;;25.01;45.29;101588.16;5061529;27;46888;-59
2021/07/22 05:10:38;;;;;;;;;22.50;22.50;;;;;25.01;45.54;101588.16;5044774;28;45388;-59
2021/07/22 05:13:04;;;;;;;;;24.25;23.00;;;;;25.02;45.31;101588.03;5079768;27;45271;-59
2021/07/22 05:15:29;;;;;;;;;21.50;20.50;;;;;25.03;45.36;101587.09;5061900;28;45259;-59
2021/07/22 05:17:55;;;;;;;;;24.50;23.50;;;;;25.05;45.26;101582.44;5079497;27;48285;-59
2021/07/22 05:20:20;;;;;;;;;26.25;25.00;;;;;25.05;45.16;101582.44;5079816;27;45267;-59
2021/07/22 05:22:46;;;;;;;;;27.00;24.25;;;;;25.05;44.94;101587.00;5079419;27;45570;-59
2021/07/22 05:25:12;;;;;;;;;24.50;23.25;;;;;25.04;45.38;101585.25;5078026;27;45787;-58
2021/07/22 05:27:37;;;;;;;;;24.00;23.25;;;;;25.04;45.29;101587.97;5079020;27;47578;-59
2021/07/22 05:30:03;;;;;;;;;24.75;24.00;;;;;25.03;45.27;101587.09;5061187;27;45468;-59
2021/07/22 05:32:29;;;;;;;;;24.00;23.00;;;;;25.03;45.34;101587.09;5079401;27;45802;-59
2021/07/22 05:34:55;;;;;;;;;28.75;24.25;;;;;25.04;45.12;101590.69;5079252;27;45368;-58
2021/07/22 05:37:20;;;;;;;;;21.50;20.50;;;;;25.03;44.90;101597.06;5059707;27;46877;-59
2021/07/22 05:39:45;;;;;;;;;22.00;19.75;;;;;25.00;45.11;101591.81;5067780;27;45334;-59
2021/07/22 05:42:11;;;;;;;;;24.00;23.50;;;;;25.00;44.81;101591.81;5079724;27;45447;-59
2021/07/22 05:44:36;;;;;;;;;22.00;20.75;;;;;24.98;44.76;101591.91;5079434;27;45485;-59
2021/07/22 05:47:02;;;;;;;;;22.50;21.75;;;;;24.97;45.04;101595.63;5068933;28;47535;-58
2021/07/22 05:49:27;;;;;;;;;23.50;22.50;;;;;24.96;45.24;101585.72;5078749;27;45825;-58
2021/07/22 05:51:53;;;;;;;;;20.75;19.50;;;;;24.96;45.13;101591.16;5058408;28;45461;-59
2021/07/22 05:54:18;;;;;;;;;22.50;21.50;;;;;24.95;45.07;101592.13;5054583;28;45276;-58
2021/07/22 05:56:44;;;;;;;;;25.25;23.75;;;;;24.93;45.30;101600.38;5074043;27;46814;-58
2021/07/22 05:59:09;;;;;;;;;26.00;24.75;;;;;24.94;45.41;101598.53;5075600;27;45442;-58
2021/07/22 06:01:36;;;;;;;;;23.75;22.50;;;;;24.95;44.98;101593.00;5051430;27;45249;-59
2021/07/22 06:04:02;;;;;;;;;21.00;18.75;;;;;24.95;44.72;101593.00;5060628;28;45414;-59
2021/07/22 06:06:27;;;;;;;;;22.75;22.75;;;;;24.97;45.10;101594.75;5077414;27;48139;-58
2021/07/22 06:08:54;;;;;;;;;23.75;22.75;;;;;24.97;45.26;101594.75;5071352;28;45433;-59
2021/07/22 06:11:20;;;;;;;;;21.00;21.00;;;;;24.99;45.02;101595.50;5063048;27;45371;-59
2021/07/22 06:13:45;;;;;;;;;30.25;26.50;;;;;24.99;44.78;101590.94;5061085;28;45322;-58
2021/07/22 06:16:13;;;;;;;;;23.00;21.25;;;;;24.98;44.99;101594.63;5064501;27;46600;-59
2021/07/22 06:18:39;;;;;;;;;22.25;19.25;;;;;25.00;44.96;101594.53;5065833;27;45462;-59
2021/07/22 06:21:05;;;;;;;;;22.50;22.25;;;;;24.99;44.60;101590.94;5074577;27;45799;-59
2021/07/22 06:23:31;;;;;;;;;26.75;24.75;;;;;24.97;45.19;101589.31;5059142;28;45546;-59
2021/07/22 06:26:00;;;;;;;;;21.00;19.00;;;;;24.98;44.82;101594.63;5074490;27;47955;-60
2021/07/22 06:28:26;;;;;;;;;23.00;20.50;;;;;24.99;44.57;101592.78;5060846;28;45436;-57
2021/07/22 06:30:53;;;;;;;;;24.00;20.50;;;;;25.00;44.87;101589.97;5076200;27;45378;-59
2021/07/22 06:33:19;;;;;;;;;22.50;18.25;;;;;25.01;44.60;101589.03;5076889;27;45349;-59
2021/07/22 06:35:44;;;;;;;;;20.00;19.50;;;;;25.02;44.86;101590.75;5077576;27;47175;-59
2021/07/22 06:38:10;;;;;;;;;19.25;19.25;;;;;25.02;44.57;101590.75;5078451;27;45567;-59
2021/07/22 06:40:35;;;;;;;;;23.25;21.75;;;;;25.04;45.25;101587.97;5079956;27;45560;-58
2021/07/22 06:43:01;;;;;;;;;25.00;22.25;;;;;25.07;44.99;101585.91;5060619;28;45440;-58
2021/07/22 06:45:26;;;;;;;;;28.00;26.25;;;;;25.09;44.73;101588.50;5052287;28;47202;-58
2021/07/22 06:47:52;;;;;;;;;23.75;23.75;;;;;25.11;44.50;101587.41;5055498;28;45772;-58
2021/07/22 06:50:17;;;;;;;;;29.25;26.75;;;;;25.14;44.56;101589.03;5057705;28;45263;-58
2021/07/22 06:52:43;;;;;;;;;24.25;24.25;;;;;25.18;44.69;101596.03;5056418;28;45994;-58
2021/07/22 06:55:09;;;;;;;;;23.50;23.00;;;;;25.20;44.68;101588.66;5062775;28;46251;-58
2021/07/22 06:57:35;;;;;;;;;22.25;21.75;;;;;25.18;44.63;101590.59;5050907;28;45823;-58
2021/07/22 07:00:00;;;;;;;;;25.50;23.75;;;;;25.18;44.37;101588.75;5048979;28;45594;-58
2021/07/22 07:02:26;;;;;;;;;23.50;22.25;;;;;25.20;44.66;101591.34;5052965;28;45472;-58
2021/07/22 07:04:51;;;;;;;;;24.00;24.00;;;;;25.20;44.67;101597.66;5049648;28;48402;-58
2021/07/22 07:07:17;;;;;;;;;27.75;24.00;;;;;25.22;44.61;101590.28;5055959;28;45274;-58
2021/07/22 07:09:43;;;;;;;;;22.75;22.25;;;;;25.25;44.75;101589.19;5055866;28;45586;-58
2021/07/22 07:12:09;;;;;;;;;29.25;27.25;;;;;25.27;44.55;101595.38;5057261;28;45423;-58
2021/07/22 07:14:35;;;;;;;;;25.50;22.75;;;;;25.30;44.86;101589.75;5056966;27;45536;-58
2021/07/22 07:17:01;;;;;;;;;27.25;25.50;;;;;25.29;44.63;101593.44;5045181;28;45472;-58
2021/07/22 07:19:26;;;;;;;;;25.00;24.75;;;;;25.30;44.81;101597.91;5057601;28;45329;-58
2021/07/22 07:21:51;;;;;;;;;25.50;25.00;;;;;25.33;44.88;101594.09;5057854;28;45655;-59
2021/07/22 07:24:17;;;;;;;;;21.75;21.75;;;;;25.36;44.46;101593.88;5056508;28;45500;-58
2021/07/22 07:26:42;;;;;;;;;25.50;25.50;;;;;25.38;44.39;101592.78;5060837;28;45350;-58
2021/07/22 07:29:08;;;;;;;;;25.25;22.25;;;;;25.42;44.20;101594.31;5061121;28;45563;-59
2021/07/22 07:31:33;;;;;;;;;27.00;24.25;;;;;25.43;44.24;101593.34;5061386;28;45622;-59
2021/07/22 07:33:59;;;;;;;;;20.25;19.25;;;;;25.42;44.36;101591.59;5060844;28;45694;-59
2021/07/22 07:36:24;;;;;;;;;23.00;21.50;;;;;25.45;44.26;101594.09;5061131;28;45386;-57
2021/07/22 07:38:50;;;;;;;;;23.75;22.00;;;;;25.49;44.37;101594.75;5051336;28;45651;-57
2021/07/22 07:41:15;;;;;;;;;23.25;21.75;;;;;25.51;44.45;101596.38;5061127;27;45283;-58
2021/07/22 07:43:41;;;;;;;;;20.50;20.50;;;;;25.53;43.62;101597.13;5058007;28;47159;-58
2021/07/22 07:46:06;;;;;;;;;20.50;19.75;;;;;25.56;43.24;101597.91;5055975;28;45874;-58
2021/07/22 07:48:32;;;;;;;;;21.00;20.75;;;;;25.58;42.68;101595.97;5060597;28;45385;-59
2021/07/22 07:50:57;;;;;;;;;19.75;18.25;;;;;25.62;43.17;101589.31;5060288;28;45614;-58
2021/07/22 07:53:23;;;;;;;;;22.50;19.75;;;;;25.65;43.21;101598.13;5060450;28;47808;-58
2021/07/22 07:55:49;;;;;;;;;22.50;18.75;;;;;25.71;42.76;101594.13;5060176;27;45330;-58
2021/07/22 07:58:14;;;;;;;;;17.25;17.25;;;;;25.74;42.44;101583.03;5059328;28;45319;-58
2021/07/22 08:00:40;;;;;;;;;19.25;19.00;;;;;25.76;41.73;101583.78;5059030;28;45620;-58
2021/07/22 08:03:16;;;;;;;;;14.75;14.75;;;;;25.78;41.37;101584.53;5052873;28;47410;-58
2021/07/22 08:05:41;;;;;;;;;15.25;15.25;;;;;25.78;41.48;101581.81;5057730;28;45687;-59
2021/07/22 08:08:06;;;;;;;;;19.25;17.00;;;;;25.82;41.07;101588.81;5058953;28;45500;-58
2021/07/22 08:10:32;;;;;;;;;16.75;16.75;;;;;25.85;41.08;101587.72;5057358;28;45637;-57
2021/07/22 08:12:57;;;;;;;;;22.00;20.00;;;;;25.88;41.25;101579.31;5055190;28;45409;-58
2021/07/22 08:15:23;;;;;;;;;19.75;19.00;;;;;25.90;41.06;101580.09;5060147;28;45334;-59
2021/07/22 08:17:48;;;;;;;;;17.75;16.75;;;;;25.93;40.65;101585.31;5060326;28;45487;-58
2021/07/22 08:20:14;;;;;;;;;20.75;17.00;;;;;25.96;40.07;101583.25;5060248;28;45623;-58
2021/07/22 08:22:39;;;;;;;;;20.00;19.50;;;;;26.01;39.75;101580.16;5059812;28;47152;-59
2021/07/22 08:25:05;;;;;;;;;19.75;17.00;;;;;26.02;39.87;101577.34;5059883;28;45773;-57
2021/07/22 08:27:32;;;;;;;;;17.25;16.00;;;;;26.06;39.62;101567.13;5060024;28;45856;-58
2021/07/22 08:29:58;;;;;;;;;23.25;18.50;;;;;26.09;39.61;101581.38;5059782;28;45420;-57
2021/07/22 08:32:25;;;;;;;;;21.75;21.75;;;;;26.11;40.10;101581.25;5058175;28;47262;-60
2021/07/22 08:34:51;;;;;;;;;20.25;20.25;;;;;26.14;40.23;101588.31;5059395;28;45857;-60
2021/07/22 08:37:16;;;;;;;;;20.00;20.00;;;;;26.17;39.51;101585.34;5049690;28;45318;-58
2021/07/22 08:39:49;;;;;;;;;17.50;17.50;;;;;26.18;39.48;101581.69;5048538;28;45275;-58
2021/07/22 08:42:14;;;;;;;;;15.25;15.25;;;;;26.20;39.63;101579.72;5058690;28;47928;-58
2021/07/22 08:44:42;;;;;;;;;18.00;17.25;;;;;26.22;39.80;101589.50;5063300;28;45357;-58
2021/07/22 08:47:09;;;;;;;;;18.25;18.25;;;;;26.26;39.23;101592.84;5074424;27;46435;-58
2021/07/22 08:49:37;;;;;;;;;17.00;17.00;;;;;26.28;39.51;101596.31;5074172;27;45467;-58
2021/07/22 08:52:09;;;;;;;;;18.25;18.25;;;;;26.30;39.26;101587.09;5076105;27;47139;-58
2021/07/22 08:54:36;;;;;;;;;16.00;15.25;;;;;26.32;39.42;101581.53;5079816;27;45762;-58
2021/07/22 08:57:02;;;;;;;;;18.50;18.50;;;;;26.34;39.14;101579.56;5080278;27;45446;-58
2021/07/22 08:59:31;;;;;;;;;19.75;19.75;;;;;26.38;39.52;101583.81;5062775;28;45910;-58
2021/07/22 09:01:58;;;;;;;;;20.75;18.75;;;;;26.40;39.17;101568.22;5070062;27;48330;-57
2021/07/22 09:04:23;;;;;;;;;20.25;19.75;;;;;26.42;39.27;101574.44;5079884;27;45274;-58
2021/07/22 09:06:49;;;;;;;;;19.25;18.25;;;;;26.43;39.25;101573.47;5076606;27;45876;-58
2021/07/22 09:09:16;;;;;;;;;20.75;19.25;;;;;26.44;39.02;101588.81;5061923;28;45739;-58
2021/07/22 09:11:59;;;;;;;;;18.75;18.75;;;;;26.45;39.17;101576.94;5079877;27;46125;-58
2021/07/22 09:14:29;;;;;;;;;19.00;17.75;;;;;26.49;39.03;101585.75;5061723;28;45358;-58
2021/07/22 09:16:55;;;;;;;;;20.75;18.50;;;;;26.54;39.16;101586.25;5061943;28;45427;-58
2021/07/22 09:19:35;;;;;;;;;20.50;18.25;;;;;26.59;39.11;101573.19;5080162;27;45594;-58
2021/07/22 09:22:02;;;;;;;;;18.25;17.00;;;;;26.63;38.88;101580.13;5079866;27;47512;-58
2021/07/22 09:24:27;;;;;;;;;18.00;18.00;;;;;26.67;39.36;101585.22;5079619;27;46052;-58
2021/07/22 09:26:54;;;;;;;;;17.50;16.50;;;;;26.71;38.59;101587.72;5079345;28;45389;-58
2021/07/22 09:29:20;;;;;;;;;19.75;18.00;;;;;26.70;39.09;101581.41;5079636;27;45398;-58
2021/07/22 09:31:46;;;;;;;;;20.00;17.00;;;;;26.74;39.10;101587.47;5079471;27;45723;-58
2021/07/22 09:34:17;;;;;;;;;20.00;18.00;;;;;26.76;38.80;101585.50;5079336;27;45367;-58
2021/07/22 09:36:42;;;;;;;;;19.00;17.75;;;;;26.78;38.84;101581.69;5079303;27;45812;-58
2021/07/22 09:39:25;;;;;;;;;21.75;18.50;;;;;26.81;38.76;101583.31;5066746;27;45423;-58
2021/07/22 09:41:57;;;;;;;;;16.75;14.25;;;;;26.82;38.92;101572.31;5076300;27;47988;-59
2021/07/22 09:44:39;;;;;;;;;16.50;15.75;;;;;26.85;38.77;101579.38;5045480;28;45523;-59
2021/07/22 09:47:07;;;;;;;;;22.50;20.25;;;;;26.87;38.26;101572.81;5068372;27;45417;-59
2021/07/22 09:49:41;;;;;;;;;15.50;15.50;;;;;26.89;38.80;101575.41;5061472;28;45455;-57
2021/07/22 09:52:18;;;;;;;;;16.50;15.75;;;;;26.91;38.60;101573.44;5049165;27;48217;-59
2021/07/22 09:54:45;;;;;;;;;14.00;14.00;;;;;26.91;38.12;101567.97;5057693;28;46053;-59
2021/07/22 09:57:18;;;;;;;;;15.25;14.00;;;;;26.91;38.46;101568.84;5059995;28;45382;-59
2021/07/22 09:59:45;;;;;;;;;16.50;16.50;;;;;26.95;38.72;101574.97;5072239;27;45492;-58
2021/07/22 10:02:18;;;;;;;;;16.50;16.00;;;;;26.98;38.29;101567.41;5069069;27;48225;-57
2021/07/22 10:05:06;;;;;;;;;15.75;15.50;;;;;27.00;38.63;101564.56;5078830;28;45858;-57
2021/07/22 10:07:35;;;;;;;;;15.50;15.50;;;;;27.03;38.12;101567.06;5060778;28;45483;-57
2021/07/22 10:10:02;;;;;;;;;15.50;15.50;;;;;27.07;38.18;101554.09;5079290;28;45692;-57
2021/07/22 10:12:29;;;;;;;;;16.00;16.00;;;;;27.07;37.89;101557.69;5060588;28;47396;-57
2021/07/22 10:14:58;;;;;;;;;19.00;18.00;;;;;27.10;38.44;101551.13;5078613;27;45386;-58
2021/07/22 10:17:36;;;;;;;;;12.50;12.50;;;;;27.13;37.88;101550.88;5060677;28;45451;-58
2021/07/22 10:20:04;;;;;;;;;14.75;14.75;;;;;27.14;37.49;101552.63;5078691;27;45587;-58
2021/07/22 10:22:31;;;;;;;;;20.00;19.00;;;;;27.15;37.60;101551.63;5060665;28;47030;-58
2021/07/22 10:24:57;;;;;;;;;18.00;18.00;;;;;27.17;37.66;101545.06;5077454;28;45431;-59
2021/07/22 10:27:24;;;;;;;;;15.75;15.25;;;;;27.19;37.73;101550.44;5078864;27;45322;-58
2021/07/22 10:29:50;;;;;;;;;16.50;15.25;;;;;27.22;38.10;101547.44;5057388;28;45344;-58
2021/07/22 10:32:18;;;;;;;;;14.00;14.00;;;;;27.24;37.72;101538.16;5072795;27;48263;-58
2021/07/22 10:34:45;;;;;;;;;12.00;12.00;;;;;27.26;37.21;101543.47;5078114;27;45644;-58
2021/07/22 10:37:16;;;;;;;;;17.75;17.50;;;;;27.27;37.71;101537.03;5078774;27;45460;-58
2021/07/22 10:40:05;;;;;;;;;16.75;16.50;;;;;27.30;37.79;101533.19;5060633;28;45751;-57
2021/07/22 10:42:48;;;;;;;;;17.50;16.25;;;;;27.32;37.91;101529.38;5078166;27;47455;-58
2021/07/22 10:45:19;;;;;;;;;19.25;18.25;;;;;27.37;38.06;101529.00;5055996;28;46129;-58
2021/07/22 10:48:01;;;;;;;;;14.00;13.50;;;;;27.40;37.21;101531.50;5076490;28;45309;-58
2021/07/22 10:50:45;;;;;;;;;16.50;16.50;;;;;27.43;37.54;101518.47;5077689;27;45482;-58
2021/07/22 10:53:11;;;;;;;;;16.25;15.00;;;;;27.45;37.13;101532.88;5078172;28;47437;-59
2021/07/22 10:55:43;;;;;;;;;20.75;19.00;;;;;27.49;37.85;101525.31;5060136;28;45715;-58
2021/07/22 10:58:23;;;;;;;;;15.50;15.00;;;;;27.53;36.83;101524.94;5077948;27;45665;-59
2021/07/22 11:00:49;;;;;;;;;15.00;14.25;;;;;27.56;37.53;101521.09;5059064;28;45358;-58
2021/07/22 11:03:53;;;;;;;;;13.50;12.50;;;;;27.60;37.13;101517.13;5077713;28;47148;-58
2021/07/22 11:06:19;;;;;;;;;16.00;16.00;;;;;27.66;36.90;101518.53;5022927;27;45529;-59
2021/07/22 11:09:08;;;;;;;;;17.75;17.25;;;;;27.69;37.24;101510.09;5077677;27;45377;-58